Startpagina
METAR-TAF:

METAR-TAF

Vliegvelden :

Vliegbasis Leeuwarden

Leeuwarden, Nederland

breedte: 53-13N, lengte: 005-46E, hoogte: 1 m

Actueel weer

Dit bericht is 36 minuten geleden gemaakt, om 15:25 UTC
Wind 4 kt uit het oostnoordoosten, variërend tussen het noordnoordoosten en het oosten
Temperatuur 0°C
Vochtigheid 86%
Druk 1019 hPa
Zicht 10 km of meer
Geheel bewolkt op 10000 ft

METAR: EHLW 201525Z AUTO 07004KT 030V100 9999 OVC100 M00/M02 Q1019 BLU

Tijdstip: 17:01 (16:01 UTC)

Verwachting

Dit bericht is 2 uur en het 24 minuten geleden gemaakt, om 13:37 UTC
Verwachting geldig van 20 om 14 UTC tot 21 om 02 UTC
Wind 2 kt uit variabele richting
Zicht 10 km of meer
geen wolken onder 1500 m en geen cumulonimbus
Kans 40% :
Tijdelijke
van 20 om 22 UTC tot 21 om 01 UTC
Zicht: 3000 m
nevel, Ondiepe mist
Wijzigt naar
van 21 om 00 UTC tot 21 om 02 UTC
Wind 5 kt uit het zuidzuidwesten

TAF: EHLW 201337Z 2014/2102 VRB02KT CAVOK PROB40 TEMPO 2022/2101 3000 BR MIFG BECMG 2100/2102 20005KT

Waarnemingen en weersverwachtingen van meer dan 4000 vliegvelden (METAR en TAF).

De beschikbare stations zijn de gele en rode punten op de kaart.

Ga met uw muis naar het station om de naam te zien.

Klik dan om waarnemingen en weersverwachtingen te zien.

kaart wijzigen: klik op de groene knoppen met een zwart kruis om in te zoomen, op de groene knop met een streepje om uit te zoomen of op de groene pijlen voor aangrenzende kaarten.


METAR-TAF: